Neva — MCNR — position and weather

sailwx.info

Track history (hours):
 
Tides and Currents Weather Stations Pressure Air Temp Water Temp Dewpoint Dewpoint Depression Visibility Wind Speed Wind Dir Waves Ship Positions

Neva

Last reported at 2018-Jun-22 01:30 UTC. Time now 2018-Jun-22 01:40 UTC.
Position N 22°39' E 120°07'.

Length 172 m; draft 7.4 m.

Type: Cargo ship. MMSI: 235012099.

Date/timePositionNaut miles runAvg speedWind from/ knotsBaromVisibWave heightAir tempDewpointWater temp
2018-Jun-22 01:30N 22°39' E 120°07'612.1
2018-Jun-22 01:00N 22°34' E 120°11'611.7
2018-Jun-22 00:30N 22°33' E 120°17'2 3.4
2018-Jun-21 23:58N 22°34' E 120°19'0 0.0
2018-Jun-21 23:28N 22°34' E 120°19'0 0.0
2018-Jun-21 22:58N 22°34' E 120°19'0 0.0
2018-Jun-21 22:28N 22°34' E 120°19'0 0.0
2018-Jun-21 21:58N 22°34' E 120°19'0 0.0
2018-Jun-21 21:16N 22°34' E 120°19'0 0.0
2018-Jun-21 20:58N 22°34' E 120°19'0 0.0
2018-Jun-21 20:28N 22°34' E 120°19'0 0.0
2018-Jun-21 19:52N 22°34' E 120°19'0 0.0
2018-Jun-21 19:16N 22°34' E 120°19'0 0.0
2018-Jun-21 18:58N 22°34' E 120°19'0 0.0
2018-Jun-21 18:28N 22°34' E 120°19'0 0.0
2018-Jun-21 17:58N 22°34' E 120°19'0 0.0
2018-Jun-21 17:28N 22°34' E 120°19'0 0.0
2018-Jun-21 16:58N 22°34' E 120°19'0 0.0
2018-Jun-21 16:28N 22°34' E 120°19'0 0.0
2018-Jun-21 15:58N 22°34' E 120°19'0 0.0
2018-Jun-21 15:28N 22°34' E 120°19'0 0.0
2018-Jun-21 14:58N 22°34' E 120°19'0 0.0
2018-Jun-21 14:28N 22°34' E 120°19'0 0.0
2018-Jun-21 13:58N 22°34' E 120°19'0 0.0
2018-Jun-21 13:28N 22°34' E 120°19'0 0.0
2018-Jun-21 12:58N 22°34' E 120°19'0 0.0
2018-Jun-21 12:28N 22°34' E 120°19'0 0.0
2018-Jun-21 11:52N 22°34' E 120°19'0 0.0
2018-Jun-21 11:28N 22°34' E 120°19'0 0.0
2018-Jun-21 10:58N 22°34' E 120°19'0 0.1
2018-Jun-21 10:30N 22°34' E 120°19'2 4.5
2018-Jun-21 10:00N 22°33' E 120°17'3 5.2
2018-Jun-21 09:30N 22°32' E 120°14'1 1.7
2018-Jun-21 08:51N 22°31' E 120°13'1 1.4
2018-Jun-21 08:27N 22°31' E 120°13'1 1.2
2018-Jun-21 07:57N 22°30' E 120°13'1 1.5
2018-Jun-21 07:30N 22°31' E 120°13'0 0.1
2018-Jun-21 06:55N 22°31' E 120°13'1 1.0
2018-Jun-21 06:25N 22°31' E 120°13'1 1.2
2018-Jun-21 05:55N 22°30' E 120°12'1 1.2
2018-Jun-21 05:19N 22°30' E 120°12'0 0.9
2018-Jun-21 04:55N 22°30' E 120°12'0 0.6
2018-Jun-21 04:25N 22°29' E 120°11'0 0.5
2018-Jun-21 03:51N 22°30' E 120°11'0 0.5
2018-Jun-21 03:30N 22°29' E 120°11'1 2.9
2018-Jun-21 03:00N 22°30' E 120°10'3 6.2
2018-Jun-21 02:30N 22°31' E 120°06'4 7.3
2018-Jun-21 02:00N 22°30' E 120°02'510.0
2018-Jun-21 01:30N 22°30' E 119°57'712.9
2018-Jun-21 01:00N 22°29' E 119°50'916.8
2018-Jun-21 00:27N 22°29' E 119°40'30916.7
2018-Jun-20 05:59N 22°19' E 114°07'311 7.6
2018-Jun-18 13:18N 22°30' E 119°43'413.8
2018-Jun-18 13:00N 22°31' E 119°47'713.7
2018-Jun-18 12:30N 22°33' E 119°54'611.5
2018-Jun-18 12:00N 22°35' E 120°00'611.6
2018-Jun-18 11:30N 22°37' E 120°06'611.4
2018-Jun-18 11:00N 22°38' E 120°12'5 9.5
2018-Jun-18 10:30N 22°36' E 120°17'3 3.3
2018-Jun-18 09:31N 22°34' E 120°19'0 0.1
2018-Jun-18 09:26N 22°34' E 120°19'0 0.0
2018-Jun-18 08:55N 22°34' E 120°19'0 0.0
2018-Jun-18 08:25N 22°34' E 120°19'0 0.0
2018-Jun-18 06:20N 22°34' E 120°19'0 0.0
2018-Jun-18 05:56N 22°34' E 120°19'0 0.1
2018-Jun-18 05:28N 22°34' E 120°19'2 5.2
2018-Jun-18 05:00N 22°33' E 120°17'3 5.8
2018-Jun-18 04:30N 22°32' E 120°14'2 3.5
2018-Jun-18 04:00N 22°32' E 120°12'3 5.4
2018-Jun-18 03:30N 22°34' E 120°10'4 8.2
2018-Jun-18 03:00N 22°37' E 120°07'5 9.6
2018-Jun-18 02:30N 22°41' E 120°04'510.3
2018-Jun-18 02:00N 22°45' E 120°01'611.4
2018-Jun-18 01:30N 22°50' E 119°57'612.8
2018-Jun-18 01:00N 22°56' E 119°56'  
2018-Jun-14 00:15N 35°02' E 129°09'312.3
2018-Jun-14 00:00N 35°04' E 129°07'2 4.0
2018-Jun-13 23:28N 35°06' E 129°05'0 0.0
2018-Jun-13 23:01N 35°06' E 129°05'0 0.0
2018-Jun-13 22:28N 35°06' E 129°05'0 0.0
2018-Jun-13 21:58N 35°06' E 129°05'0 0.0
2018-Jun-13 21:28N 35°06' E 129°05'0 0.0
2018-Jun-13 21:01N 35°06' E 129°05'0 0.0
2018-Jun-13 20:28N 35°06' E 129°05'0 0.0
2018-Jun-13 19:58N 35°06' E 129°05'0 0.0
2018-Jun-13 19:28N 35°06' E 129°05'0 0.0
2018-Jun-13 18:58N 35°06' E 129°05'0 0.0
2018-Jun-13 18:28N 35°06' E 129°05'0 0.0
2018-Jun-13 17:58N 35°06' E 129°05'0 0.0
2018-Jun-13 17:31N 35°06' E 129°05'0 0.0
2018-Jun-13 16:58N 35°06' E 129°05'0 0.0
2018-Jun-13 16:28N 35°06' E 129°05'0 0.0
2018-Jun-13 15:58N 35°06' E 129°05'0 0.0
2018-Jun-13 15:31N 35°06' E 129°05'0 0.0
2018-Jun-13 14:58N 35°06' E 129°05'0 0.0
2018-Jun-13 14:28N 35°06' E 129°05'0 0.0
2018-Jun-13 13:58N 35°06' E 129°05'0 0.0
2018-Jun-13 13:28N 35°06' E 129°05'0 0.0
2018-Jun-13 12:58N 35°06' E 129°05'0 0.0
2018-Jun-13 12:28N 35°06' E 129°05'0 0.0
2018-Jun-13 11:55N 35°06' E 129°05'0 0.0
2018-Jun-13 11:28N 35°06' E 129°05'2 3.6
2018-Jun-13 11:00N 35°05' E 129°06'5 8.5
2018-Jun-13 10:27N 35°01' E 129°09'  
Track history (hours):
 
Tides and Currents Weather Stations Pressure Air Temp Water Temp Dewpoint Dewpoint Depression Visibility Wind Speed Wind Dir Waves Ship Positions

Neva

Last reported at 2018-Jun-22 01:30 UTC. Time now 2018-Jun-22 01:40 UTC.
Position N 22°39' E 120°07'.

Length 172 m; draft 7.4 m.

Type: Cargo ship. MMSI: 235012099.

Date/timePositionNaut miles runAvg speedWind from/ knotsBaromVisibWave heightAir tempDewpointWater temp
2018-Jun-22 01:30N 22°39' E 120°07'612.1
2018-Jun-22 01:00N 22°34' E 120°11'611.7
2018-Jun-22 00:30N 22°33' E 120°17'2 3.4
2018-Jun-21 23:58N 22°34' E 120°19'0 0.0
2018-Jun-21 23:28N 22°34' E 120°19'0 0.0
2018-Jun-21 22:58N 22°34' E 120°19'0 0.0
2018-Jun-21 22:28N 22°34' E 120°19'0 0.0
2018-Jun-21 21:58N 22°34' E 120°19'0 0.0
2018-Jun-21 21:16N 22°34' E 120°19'0 0.0
2018-Jun-21 20:58N 22°34' E 120°19'0 0.0
2018-Jun-21 20:28N 22°34' E 120°19'0 0.0
2018-Jun-21 19:52N 22°34' E 120°19'0 0.0
2018-Jun-21 19:16N 22°34' E 120°19'0 0.0
2018-Jun-21 18:58N 22°34' E 120°19'0 0.0
2018-Jun-21 18:28N 22°34' E 120°19'0 0.0
2018-Jun-21 17:58N 22°34' E 120°19'0 0.0
2018-Jun-21 17:28N 22°34' E 120°19'0 0.0
2018-Jun-21 16:58N 22°34' E 120°19'0 0.0
2018-Jun-21 16:28N 22°34' E 120°19'0 0.0
2018-Jun-21 15:58N 22°34' E 120°19'0 0.0
2018-Jun-21 15:28N 22°34' E 120°19'0 0.0
2018-Jun-21 14:58N 22°34' E 120°19'0 0.0
2018-Jun-21 14:28N 22°34' E 120°19'0 0.0
2018-Jun-21 13:58N 22°34' E 120°19'0 0.0
2018-Jun-21 13:28N 22°34' E 120°19'0 0.0
2018-Jun-21 12:58N 22°34' E 120°19'0 0.0
2018-Jun-21 12:28N 22°34' E 120°19'0 0.0
2018-Jun-21 11:52N 22°34' E 120°19'0 0.0
2018-Jun-21 11:28N 22°34' E 120°19'0 0.0
2018-Jun-21 10:58N 22°34' E 120°19'0 0.1
2018-Jun-21 10:30N 22°34' E 120°19'2 4.5
2018-Jun-21 10:00N 22°33' E 120°17'3 5.2
2018-Jun-21 09:30N 22°32' E 120°14'1 1.7
2018-Jun-21 08:51N 22°31' E 120°13'1 1.4
2018-Jun-21 08:27N 22°31' E 120°13'1 1.2
2018-Jun-21 07:57N 22°30' E 120°13'1 1.5
2018-Jun-21 07:30N 22°31' E 120°13'0 0.1
2018-Jun-21 06:55N 22°31' E 120°13'1 1.0
2018-Jun-21 06:25N 22°31' E 120°13'1 1.2
2018-Jun-21 05:55N 22°30' E 120°12'1 1.2
2018-Jun-21 05:19N 22°30' E 120°12'0 0.9
2018-Jun-21 04:55N 22°30' E 120°12'0 0.6
2018-Jun-21 04:25N 22°29' E 120°11'0 0.5
2018-Jun-21 03:51N 22°30' E 120°11'0 0.5
2018-Jun-21 03:30N 22°29' E 120°11'1 2.9
2018-Jun-21 03:00N 22°30' E 120°10'3 6.2
2018-Jun-21 02:30N 22°31' E 120°06'4 7.3
2018-Jun-21 02:00N 22°30' E 120°02'510.0
2018-Jun-21 01:30N 22°30' E 119°57'712.9
2018-Jun-21 01:00N 22°29' E 119°50'916.8
2018-Jun-21 00:27N 22°29' E 119°40'30916.7
2018-Jun-20 05:59N 22°19' E 114°07'311 7.6
2018-Jun-18 13:18N 22°30' E 119°43'413.8
2018-Jun-18 13:00N 22°31' E 119°47'713.7
2018-Jun-18 12:30N 22°33' E 119°54'611.5
2018-Jun-18 12:00N 22°35' E 120°00'611.6
2018-Jun-18 11:30N 22°37' E 120°06'611.4
2018-Jun-18 11:00N 22°38' E 120°12'5 9.5
2018-Jun-18 10:30N 22°36' E 120°17'3 3.3
2018-Jun-18 09:31N 22°34' E 120°19'0 0.1
2018-Jun-18 09:26N 22°34' E 120°19'0 0.0
2018-Jun-18 08:55N 22°34' E 120°19'0 0.0
2018-Jun-18 08:25N 22°34' E 120°19'0 0.0
2018-Jun-18 06:20N 22°34' E 120°19'0 0.0
2018-Jun-18 05:56N 22°34' E 120°19'0 0.1
2018-Jun-18 05:28N 22°34' E 120°19'2 5.2
2018-Jun-18 05:00N 22°33' E 120°17'3 5.8
2018-Jun-18 04:30N 22°32' E 120°14'2 3.5
2018-Jun-18 04:00N 22°32' E 120°12'3 5.4
2018-Jun-18 03:30N 22°34' E 120°10'4 8.2
2018-Jun-18 03:00N 22°37' E 120°07'5 9.6
2018-Jun-18 02:30N 22°41' E 120°04'510.3
2018-Jun-18 02:00N 22°45' E 120°01'611.4
2018-Jun-18 01:30N 22°50' E 119°57'612.8
2018-Jun-18 01:00N 22°56' E 119°56'  
2018-Jun-14 00:15N 35°02' E 129°09'312.3
2018-Jun-14 00:00N 35°04' E 129°07'2 4.0
2018-Jun-13 23:28N 35°06' E 129°05'0 0.0
2018-Jun-13 23:01N 35°06' E 129°05'0 0.0
2018-Jun-13 22:28N 35°06' E 129°05'0 0.0
2018-Jun-13 21:58N 35°06' E 129°05'0 0.0
2018-Jun-13 21:28N 35°06' E 129°05'0 0.0
2018-Jun-13 21:01N 35°06' E 129°05'0 0.0
2018-Jun-13 20:28N 35°06' E 129°05'0 0.0
2018-Jun-13 19:58N 35°06' E 129°05'0 0.0
2018-Jun-13 19:28N 35°06' E 129°05'0 0.0
2018-Jun-13 18:58N 35°06' E 129°05'0 0.0
2018-Jun-13 18:28N 35°06' E 129°05'0 0.0
2018-Jun-13 17:58N 35°06' E 129°05'0 0.0
2018-Jun-13 17:31N 35°06' E 129°05'0 0.0
2018-Jun-13 16:58N 35°06' E 129°05'0 0.0
2018-Jun-13 16:28N 35°06' E 129°05'0 0.0
2018-Jun-13 15:58N 35°06' E 129°05'0 0.0
2018-Jun-13 15:31N 35°06' E 129°05'0 0.0
2018-Jun-13 14:58N 35°06' E 129°05'0 0.0
2018-Jun-13 14:28N 35°06' E 129°05'0 0.0
2018-Jun-13 13:58N 35°06' E 129°05'0 0.0
2018-Jun-13 13:28N 35°06' E 129°05'0 0.0
2018-Jun-13 12:58N 35°06' E 129°05'0 0.0
2018-Jun-13 12:28N 35°06' E 129°05'0 0.0
2018-Jun-13 11:55N 35°06' E 129°05'0 0.0
2018-Jun-13 11:28N 35°06' E 129°05'2 3.6
2018-Jun-13 11:00N 35°05' E 129°06'5 8.5
2018-Jun-13 10:27N 35°01' E 129°09'  

Dump ship's entire track history